sensor_id;sensor_type;location;lat;lon;timestamp;pressure;altitude;pressure_sealevel;temperature;humidity
36354;BME280;22383;51.114;13.666;2023-05-07T00:00:22;68012.94;;;7.47;100.00
36354;BME280;22383;51.114;13.666;2023-05-07T00:02:50;68015.56;;;7.47;100.00
36354;BME280;22383;51.114;13.666;2023-05-07T00:05:17;68007.47;;;7.37;100.00
36354;BME280;22383;51.114;13.666;2023-05-07T00:07:46;68006.34;;;7.36;100.00
36354;BME280;22383;51.114;13.666;2023-05-07T00:10:14;68002.00;;;7.34;100.00
36354;BME280;22383;51.114;13.666;2023-05-07T00:12:42;68002.00;;;7.34;100.00
36354;BME280;22383;51.114;13.666;2023-05-07T00:15:10;67999.00;;;7.29;100.00
36354;BME280;22383;51.114;13.666;2023-05-07T00:17:38;67994.09;;;7.27;100.00
36354;BME280;22383;51.114;13.666;2023-05-07T00:20:09;67992.56;;;7.21;100.00
36354;BME280;22383;51.114;13.666;2023-05-07T00:22:37;67991.47;;;7.27;100.00
36354;BME280;22383;51.114;13.666;2023-05-07T00:25:05;67987.88;;;7.22;100.00
36354;BME280;22383;51.114;13.666;2023-05-07T00:27:41;67989.56;;;7.23;100.00
36354;BME280;22383;51.114;13.666;2023-05-07T00:30:11;67998.03;;;7.31;100.00
36354;BME280;22383;51.114;13.666;2023-05-07T00:32:39;68005.97;;;7.38;100.00
36354;BME280;22383;51.114;13.666;2023-05-07T00:35:08;68007.66;;;7.39;100.00
36354;BME280;22383;51.114;13.666;2023-05-07T00:37:36;68012.19;;;7.44;100.00
36354;BME280;22383;51.114;13.666;2023-05-07T00:40:04;68008.81;;;7.41;100.00
36354;BME280;22383;51.114;13.666;2023-05-07T00:42:34;68027.63;;;7.53;100.00
36354;BME280;22383;51.114;13.666;2023-05-07T00:45:02;68010.28;;;7.39;100.00
36354;BME280;22383;51.114;13.666;2023-05-07T00:47:49;68019.91;;;7.48;100.00
36354;BME280;22383;51.114;13.666;2023-05-07T00:50:26;68009.16;;;7.38;100.00
36354;BME280;22383;51.114;13.666;2023-05-07T00:52:54;68017.84;;;7.49;100.00
36354;BME280;22383;51.114;13.666;2023-05-07T00:55:32;68016.34;;;7.50;100.00
36354;BME280;22383;51.114;13.666;2023-05-07T00:58:14;68004.28;;;7.36;100.00
36354;BME280;22383;51.114;13.666;2023-05-07T01:00:44;68004.84;;;7.37;100.00
36354;BME280;22383;51.114;13.666;2023-05-07T01:03:14;68015.38;;;7.44;100.00
36354;BME280;22383;51.114;13.666;2023-05-07T01:05:43;68005.22;;;7.35;100.00
36354;BME280;22383;51.114;13.666;2023-05-07T01:08:19;68012.38;;;7.39;100.00
36354;BME280;22383;51.114;13.666;2023-05-07T01:10:47;68002.97;;;7.33;100.00
36354;BME280;22383;51.114;13.666;2023-05-07T01:13:24;68005.59;;;7.40;100.00
36354;BME280;22383;51.114;13.666;2023-05-07T01:15:58;68010.50;;;7.42;100.00
36354;BME280;22383;51.114;13.666;2023-05-07T01:18:25;68012.56;;;7.42;100.00
36354;BME280;22383;51.114;13.666;2023-05-07T01:20:59;68003.91;;;7.38;100.00
36354;BME280;22383;51.114;13.666;2023-05-07T01:23:36;68009.94;;;7.42;100.00
36354;BME280;22383;51.114;13.666;2023-05-07T01:26:09;68002.59;;;7.35;100.00
36354;BME280;22383;51.114;13.666;2023-05-07T01:28:40;67998.81;;;7.34;100.00
36354;BME280;22383;51.114;13.666;2023-05-07T01:31:12;68003.16;;;7.35;100.00
36354;BME280;22383;51.114;13.666;2023-05-07T01:33:43;68004.63;;;7.34;100.00
36354;BME280;22383;51.114;13.666;2023-05-07T01:36:12;68002.38;;;7.32;100.00
36354;BME280;22383;51.114;13.666;2023-05-07T01:38:47;68009.16;;;7.38;100.00
36354;BME280;22383;51.114;13.666;2023-05-07T01:41:24;67996.38;;;7.29;100.00
36354;BME280;22383;51.114;13.666;2023-05-07T01:44:06;68006.91;;;7.36;100.00
36354;BME280;22383;51.114;13.666;2023-05-07T01:46:37;68016.16;;;7.47;100.00
36354;BME280;22383;51.114;13.666;2023-05-07T01:49:04;68015.22;;;7.49;100.00
36354;BME280;22383;51.114;13.666;2023-05-07T01:51:37;68014.25;;;7.43;100.00
36354;BME280;22383;51.114;13.666;2023-05-07T01:54:05;68012.19;;;7.44;100.00
36354;BME280;22383;51.114;13.666;2023-05-07T01:56:32;68004.63;;;7.34;100.00
36354;BME280;22383;51.114;13.666;2023-05-07T01:59:00;67996.38;;;7.29;100.00
36354;BME280;22383;51.114;13.666;2023-05-07T02:01:28;68000.69;;;7.31;100.00
36354;BME280;22383;51.114;13.666;2023-05-07T02:04:04;67989.56;;;7.23;100.00
36354;BME280;22383;51.114;13.666;2023-05-07T02:06:41;67992.38;;;7.26;100.00
36354;BME280;22383;51.114;13.666;2023-05-07T02:09:10;67989.19;;;7.25;100.00
36354;BME280;22383;51.114;13.666;2023-05-07T02:11:49;67985.81;;;7.22;100.00
36354;BME280;22383;51.114;13.666;2023-05-07T02:14:18;67982.78;;;7.17;100.00
36354;BME280;22383;51.114;13.666;2023-05-07T02:16:53;67989.00;;;7.23;100.00
36354;BME280;22383;51.114;13.666;2023-05-07T02:19:20;67988.81;;;7.20;100.00
36354;BME280;22383;51.114;13.666;2023-05-07T02:21:51;67989.75;;;7.18;100.00
36354;BME280;22383;51.114;13.666;2023-05-07T02:24:32;67985.03;;;7.12;100.00
36354;BME280;22383;51.114;13.666;2023-05-07T02:27:02;67978.06;;;7.10;100.00
36354;BME280;22383;51.114;13.666;2023-05-07T02:29:35;67969.41;;;7.07;100.00
36354;BME280;22383;51.114;13.666;2023-05-07T02:32:11;67976.94;;;7.09;100.00
36354;BME280;22383;51.114;13.666;2023-05-07T02:34:38;67975.81;;;7.08;100.00
36354;BME280;22383;51.114;13.666;2023-05-07T02:37:16;67963.75;;;7.02;100.00
36354;BME280;22383;51.114;13.666;2023-05-07T02:39:46;67967.31;;;7.00;100.00
36354;BME280;22383;51.114;13.666;2023-05-07T02:42:13;67966.22;;;6.99;100.00
36354;BME280;22383;51.114;13.666;2023-05-07T02:44:40;67963.00;;;6.99;100.00
36354;BME280;22383;51.114;13.666;2023-05-07T02:47:08;67969.59;;;7.03;100.00
36354;BME280;22383;51.114;13.666;2023-05-07T02:49:40;67957.91;;;6.94;100.00
36354;BME280;22383;51.114;13.666;2023-05-07T02:52:10;67957.16;;;6.91;100.00
36354;BME280;22383;51.114;13.666;2023-05-07T02:54:37;67953.75;;;6.88;100.00
36354;BME280;22383;51.114;13.666;2023-05-07T02:57:07;67949.25;;;6.84;100.00
36354;BME280;22383;51.114;13.666;2023-05-07T02:59:34;67942.66;;;6.80;100.00
36354;BME280;22383;51.114;13.666;2023-05-07T03:02:02;67951.88;;;6.84;100.00
36354;BME280;22383;51.114;13.666;2023-05-07T03:04:30;67949.81;;;6.85;100.00
36354;BME280;22383;51.114;13.666;2023-05-07T03:06:57;67950.94;;;6.86;100.00
36354;BME280;22383;51.114;13.666;2023-05-07T03:09:48;67947.72;;;6.85;100.00
36354;BME280;22383;51.114;13.666;2023-05-07T03:12:18;67950.00;;;6.87;100.00
36354;BME280;22383;51.114;13.666;2023-05-07T03:14:46;67939.81;;;6.78;100.00
36354;BME280;22383;51.114;13.666;2023-05-07T03:17:14;67940.97;;;6.79;100.00
36354;BME280;22383;51.114;13.666;2023-05-07T03:19:50;67934.38;;;6.75;100.00
36354;BME280;22383;51.114;13.666;2023-05-07T03:22:21;67942.25;;;6.75;100.00
36354;BME280;22383;51.114;13.666;2023-05-07T03:24:55;67938.88;;;6.72;100.00
36354;BME280;22383;51.114;13.666;2023-05-07T03:27:22;67940.59;;;6.81;100.00
36354;BME280;22383;51.114;13.666;2023-05-07T03:29:51;67939.81;;;6.78;100.00
36354;BME280;22383;51.114;13.666;2023-05-07T03:32:23;67937.00;;;6.75;100.00
36354;BME280;22383;51.114;13.666;2023-05-07T03:34:51;67941.34;;;6.77;100.00
36354;BME280;22383;51.114;13.666;2023-05-07T03:37:23;67942.44;;;6.78;100.00
36354;BME280;22383;51.114;13.666;2023-05-07T03:40:00;67933.78;;;6.75;100.00
36354;BME280;22383;51.114;13.666;2023-05-07T03:42:30;67938.50;;;6.74;100.00
36354;BME280;22383;51.114;13.666;2023-05-07T03:45:03;67929.09;;;6.68;100.00
36354;BME280;22383;51.114;13.666;2023-05-07T03:47:37;67931.72;;;6.68;100.00
36354;BME280;22383;51.114;13.666;2023-05-07T03:50:07;67928.50;;;6.68;100.00
36354;BME280;22383;51.114;13.666;2023-05-07T03:52:36;67926.47;;;6.68;100.00
36354;BME280;22383;51.114;13.666;2023-05-07T03:55:08;67930.03;;;6.67;100.00
36354;BME280;22383;51.114;13.666;2023-05-07T03:57:41;67930.59;;;6.67;100.00
36354;BME280;22383;51.114;13.666;2023-05-07T04:00:09;67938.31;;;6.72;100.00
36354;BME280;22383;51.114;13.666;2023-05-07T04:02:46;67934.53;;;6.71;100.00
36354;BME280;22383;51.114;13.666;2023-05-07T04:05:27;67926.25;;;6.66;100.00
36354;BME280;22383;51.114;13.666;2023-05-07T04:07:59;67934.38;;;6.75;100.00
36354;BME280;22383;51.114;13.666;2023-05-07T04:10:34;67935.31;;;6.74;100.00
36354;BME280;22383;51.114;13.666;2023-05-07T04:13:05;67930.78;;;6.70;100.00
36354;BME280;22383;51.114;13.666;2023-05-07T04:15:35;67933.59;;;6.72;100.00
36354;BME280;22383;51.114;13.666;2023-05-07T04:18:05;67932.13;;;6.73;100.00
36354;BME280;22383;51.114;13.666;2023-05-07T04:20:34;67935.88;;;6.74;100.00
36354;BME280;22383;51.114;13.666;2023-05-07T04:23:05;67941.88;;;6.77;100.00
36354;BME280;22383;51.114;13.666;2023-05-07T04:25:34;67940.41;;;6.78;100.00
36354;BME280;22383;51.114;13.666;2023-05-07T04:28:09;67944.34;;;6.82;100.00
36354;BME280;22383;51.114;13.666;2023-05-07T04:30:41;67948.47;;;6.81;100.00
36354;BME280;22383;51.114;13.666;2023-05-07T04:33:14;67940.41;;;6.78;100.00
36354;BME280;22383;51.114;13.666;2023-05-07T04:35:52;67943.03;;;6.78;100.00
36354;BME280;22383;51.114;13.666;2023-05-07T04:38:19;67946.78;;;6.79;100.00
36354;BME280;22383;51.114;13.666;2023-05-07T04:40:50;67948.09;;;6.83;100.00
36354;BME280;22383;51.114;13.666;2023-05-07T04:43:23;67945.84;;;6.81;100.00
36354;BME280;22383;51.114;13.666;2023-05-07T04:45:54;67950.94;;;6.86;100.00
36354;BME280;22383;51.114;13.666;2023-05-07T04:48:24;67959.81;;;6.98;100.00
36354;BME280;22383;51.114;13.666;2023-05-07T04:50:54;67972.41;;;7.05;100.00
36354;BME280;22383;51.114;13.666;2023-05-07T04:53:22;67963.94;;;6.97;100.00
36354;BME280;22383;51.114;13.666;2023-05-07T04:55:55;67968.47;;;7.02;100.00
36354;BME280;22383;51.114;13.666;2023-05-07T04:58:26;67970.16;;;7.03;100.00
36354;BME280;22383;51.114;13.666;2023-05-07T05:00:54;67970.72;;;7.04;100.00
36354;BME280;22383;51.114;13.666;2023-05-07T05:03:21;67962.63;;;7.01;100.00
36354;BME280;22383;51.114;13.666;2023-05-07T05:05:49;67979.56;;;7.09;100.00
36354;BME280;22383;51.114;13.666;2023-05-07T05:08:23;67975.06;;;7.12;100.00
36354;BME280;22383;51.114;13.666;2023-05-07T05:10:50;67985.06;;;7.19;100.00
36354;BME280;22383;51.114;13.666;2023-05-07T05:13:18;67995.22;;;7.28;100.00
36354;BME280;22383;51.114;13.666;2023-05-07T05:15:46;67999.75;;;7.32;100.00
36354;BME280;22383;51.114;13.666;2023-05-07T05:18:13;67989.19;;;7.25;100.00
36354;BME280;22383;51.114;13.666;2023-05-07T05:20:41;67985.06;;;7.19;100.00
36354;BME280;22383;51.114;13.666;2023-05-07T05:23:12;68003.50;;;7.33;100.00
36354;BME280;22383;51.114;13.666;2023-05-07T05:25:43;68009.94;;;7.42;100.00
36354;BME280;22383;51.114;13.666;2023-05-07T05:28:12;68003.31;;;7.38;100.00
36354;BME280;22383;51.114;13.666;2023-05-07T05:30:44;68001.44;;;7.34;100.00
36354;BME280;22383;51.114;13.666;2023-05-07T05:33:17;67993.75;;;7.29;100.00
36354;BME280;22383;51.114;13.666;2023-05-07T05:35:44;68000.31;;;7.33;100.00
36354;BME280;22383;51.114;13.666;2023-05-07T05:38:14;68015.38;;;7.44;100.00
36354;BME280;22383;51.114;13.666;2023-05-07T05:40:43;68028.22;;;7.61;100.00
36354;BME280;22383;51.114;13.666;2023-05-07T05:43:10;68048.75;;;7.74;100.00
36354;BME280;22383;51.114;13.666;2023-05-07T05:45:44;68059.13;;;7.86;100.00
36354;BME280;22383;51.114;13.666;2023-05-07T05:48:13;68061.03;;;7.90;100.00
36354;BME280;22383;51.114;13.666;2023-05-07T05:50:42;68061.41;;;7.88;100.00
36354;BME280;22383;51.114;13.666;2023-05-07T05:53:09;68034.25;;;7.64;100.00
36354;BME280;22383;51.114;13.666;2023-05-07T05:55:38;68028.78;;;7.54;100.00
36354;BME280;22383;51.114;13.666;2023-05-07T05:58:06;68029.72;;;7.60;100.00
36354;BME280;22383;51.114;13.666;2023-05-07T06:00:37;68030.84;;;7.61;100.00
36354;BME280;22383;51.114;13.666;2023-05-07T06:03:06;68011.25;;;7.45;100.00
36354;BME280;22383;51.114;13.666;2023-05-07T06:05:35;68026.69;;;7.54;100.00
36354;BME280;22383;51.114;13.666;2023-05-07T06:08:05;68028.03;;;7.58;100.00
36354;BME280;22383;51.114;13.666;2023-05-07T06:10:38;68026.16;;;7.54;100.00
36354;BME280;22383;51.114;13.666;2023-05-07T06:13:08;68021.59;;;7.50;100.00
36354;BME280;22383;51.114;13.666;2023-05-07T06:15:39;68004.47;;;7.39;100.00
36354;BME280;22383;51.114;13.666;2023-05-07T06:18:11;68001.28;;;7.38;100.00
36354;BME280;22383;51.114;13.666;2023-05-07T06:20:41;68006.94;;;7.44;100.00
36354;BME280;22383;51.114;13.666;2023-05-07T06:23:16;68018.41;;;7.49;100.00
36354;BME280;22383;51.114;13.666;2023-05-07T06:25:49;68011.81;;;7.46;100.00
36354;BME280;22383;51.114;13.666;2023-05-07T06:28:42;68029.16;;;7.59;100.00
36354;BME280;22383;51.114;13.666;2023-05-07T06:31:21;68038.41;;;7.70;100.00
36354;BME280;22383;51.114;13.666;2023-05-07T06:33:59;68049.34;;;7.75;100.00
36354;BME280;22383;51.114;13.666;2023-05-07T06:36:32;68028.22;;;7.61;100.00
36354;BME280;22383;51.114;13.666;2023-05-07T06:39:10;68023.31;;;7.51;100.00
36354;BME280;22383;51.114;13.666;2023-05-07T06:41:39;68018.22;;;7.47;100.00
36354;BME280;22383;51.114;13.666;2023-05-07T06:44:25;68032.72;;;7.57;100.00
36354;BME280;22383;51.114;13.666;2023-05-07T06:47:18;68017.47;;;7.51;100.00
36354;BME280;22383;51.114;13.666;2023-05-07T06:49:53;68027.44;;;7.50;100.00
36354;BME280;22383;51.114;13.666;2023-05-07T06:52:26;68009.56;;;7.44;100.00
36354;BME280;22383;51.114;13.666;2023-05-07T06:54:58;68019.56;;;7.50;100.00
36354;BME280;22383;51.114;13.666;2023-05-07T06:57:26;68012.00;;;7.41;100.00
36354;BME280;22383;51.114;13.666;2023-05-07T06:59:55;68016.16;;;7.47;100.00
36354;BME280;22383;51.114;13.666;2023-05-07T07:02:23;68019.19;;;7.52;100.00
36354;BME280;22383;51.114;13.666;2023-05-07T07:04:51;68023.50;;;7.54;100.00
36354;BME280;22383;51.114;13.666;2023-05-07T07:07:20;68037.81;;;7.62;100.00
36354;BME280;22383;51.114;13.666;2023-05-07T07:09:49;68039.72;;;7.66;100.00
36354;BME280;22383;51.114;13.666;2023-05-07T07:12:18;68027.47;;;7.57;100.00
36354;BME280;22383;51.114;13.666;2023-05-07T07:14:45;68030.66;;;7.58;100.00
36354;BME280;22383;51.114;13.666;2023-05-07T07:17:14;68036.88;;;7.64;100.00
36354;BME280;22383;51.114;13.666;2023-05-07T07:19:41;68049.53;;;7.78;100.00
36354;BME280;22383;51.114;13.666;2023-05-07T07:22:09;68065.56;;;7.94;100.00
36354;BME280;22383;51.114;13.666;2023-05-07T07:24:37;68062.34;;;7.87;100.00
36354;BME280;22383;51.114;13.666;2023-05-07T07:27:09;68065.53;;;7.87;100.00
36354;BME280;22383;51.114;13.666;2023-05-07T07:29:39;68010.75;;;7.66;100.00
36354;BME280;22383;51.114;13.666;2023-05-07T07:32:08;68042.53;;;7.69;100.00
36354;BME280;22383;51.114;13.666;2023-05-07T07:34:35;68048.75;;;7.74;100.00
36354;BME280;22383;51.114;13.666;2023-05-07T07:37:02;68042.75;;;7.71;100.00
36354;BME280;22383;51.114;13.666;2023-05-07T07:39:34;68057.25;;;7.82;100.00
36354;BME280;22383;51.114;13.666;2023-05-07T07:42:02;68057.06;;;7.87;100.00
36354;BME280;22383;51.114;13.666;2023-05-07T07:44:34;68072.16;;;7.98;100.00
36354;BME280;22383;51.114;13.666;2023-05-07T07:47:06;68059.34;;;7.89;100.00
36354;BME280;22383;51.114;13.666;2023-05-07T07:49:34;68073.66;;;7.97;100.00
36354;BME280;22383;51.114;13.666;2023-05-07T07:52:05;68057.06;;;7.87;100.00
36354;BME280;22383;51.114;13.666;2023-05-07T07:54:35;68052.34;;;7.80;100.00
36354;BME280;22383;51.114;13.666;2023-05-07T07:57:03;68059.13;;;7.86;100.00
36354;BME280;22383;51.114;13.666;2023-05-07T07:59:33;68067.06;;;7.93;100.00
36354;BME280;22383;51.114;13.666;2023-05-07T08:02:00;68064.78;;;7.91;100.00
36354;BME280;22383;51.114;13.666;2023-05-07T08:04:29;68070.63;;;7.92;100.00
36354;BME280;22383;51.114;13.666;2023-05-07T08:07:06;68058.00;;;7.85;100.00
36354;BME280;22383;51.114;13.666;2023-05-07T08:09:38;68055.19;;;7.83;100.00
36354;BME280;22383;51.114;13.666;2023-05-07T08:12:07;68070.47;;;7.97;100.00
36354;BME280;22383;51.114;13.666;2023-05-07T08:14:35;68068.19;;;7.94;100.00
36354;BME280;22383;51.114;13.666;2023-05-07T08:17:05;68067.81;;;7.97;100.00
36354;BME280;22383;51.114;13.666;2023-05-07T08:19:34;68063.66;;;7.90;100.00
36354;BME280;22383;51.114;13.666;2023-05-07T08:22:04;68058.56;;;7.86;100.00
36354;BME280;22383;51.114;13.666;2023-05-07T08:24:33;68065.34;;;7.92;100.00
36354;BME280;22383;51.114;13.666;2023-05-07T08:27:01;68060.47;;;7.90;100.00
36354;BME280;22383;51.114;13.666;2023-05-07T08:29:28;68070.09;;;7.99;100.00
36354;BME280;22383;51.114;13.666;2023-05-07T08:31:55;68077.81;;;8.03;100.00
36354;BME280;22383;51.114;13.666;2023-05-07T08:34:23;68093.66;;;8.18;100.00
36354;BME280;22383;51.114;13.666;2023-05-07T08:36:52;68103.66;;;8.24;100.00
36354;BME280;22383;51.114;13.666;2023-05-07T08:39:23;68077.22;;;8.03;100.00
36354;BME280;22383;51.114;13.666;2023-05-07T08:41:55;68088.38;;;8.10;100.00
36354;BME280;22383;51.114;13.666;2023-05-07T08:44:27;68107.06;;;8.35;100.00
36354;BME280;22383;51.114;13.666;2023-05-07T08:46:58;68127.63;;;8.48;100.00
36354;BME280;22383;51.114;13.666;2023-05-07T08:49:27;68126.13;;;8.49;100.00
36354;BME280;22383;51.114;13.666;2023-05-07T08:51:55;68115.91;;;8.40;100.00
36354;BME280;22383;51.114;13.666;2023-05-07T08:54:30;68108.72;;;8.29;100.00
36354;BME280;22383;51.114;13.666;2023-05-07T08:56:59;68099.88;;;8.23;100.00
36354;BME280;22383;51.114;13.666;2023-05-07T08:59:29;68107.03;;;8.27;100.00
36354;BME280;22383;51.114;13.666;2023-05-07T09:01:57;68129.69;;;8.48;100.00
36354;BME280;22383;51.114;13.666;2023-05-07T09:04:29;68143.28;;;8.60;100.00
36354;BME280;22383;51.114;13.666;2023-05-07T09:07:04;68135.56;;;8.56;100.00
36354;BME280;22383;51.114;13.666;2023-05-07T09:09:38;68132.34;;;8.55;100.00
36354;BME280;22383;51.114;13.666;2023-05-07T09:12:06;68150.25;;;8.69;100.00
36354;BME280;22383;51.114;13.666;2023-05-07T09:14:38;68139.69;;;8.55;100.00
36354;BME280;22383;51.114;13.666;2023-05-07T09:17:06;68121.97;;;8.43;100.00
36354;BME280;22383;51.114;13.666;2023-05-07T09:19:34;68115.72;;;8.38;100.00
36354;BME280;22383;51.114;13.666;2023-05-07T09:22:05;68125.56;;;8.49;100.00
36354;BME280;22383;51.114;13.666;2023-05-07T09:24:51;68131.94;;;8.50;100.00
36354;BME280;22383;51.114;13.666;2023-05-07T09:27:23;68125.94;;;8.47;100.00
36354;BME280;22383;51.114;13.666;2023-05-07T09:29:53;68120.84;;;8.42;100.00
36354;BME280;22383;51.114;13.666;2023-05-07T09:32:20;68125.75;;;8.51;100.00
36354;BME280;22383;51.114;13.666;2023-05-07T09:34:47;68132.16;;;8.52;100.00
36354;BME280;22383;51.114;13.666;2023-05-07T09:37:21;68130.47;;;8.51;100.00
36354;BME280;22383;51.114;13.666;2023-05-07T09:39:51;68136.13;;;8.56;100.00
36354;BME280;22383;51.114;13.666;2023-05-07T09:42:25;68121.03;;;8.45;100.00
36354;BME280;22383;51.114;13.666;2023-05-07T09:44:59;68108.53;;;8.26;100.00
36354;BME280;22383;51.114;13.666;2023-05-07T09:47:32;68114.38;;;8.34;100.00
36354;BME280;22383;51.114;13.666;2023-05-07T09:50:03;68132.16;;;8.52;100.00
36354;BME280;22383;51.114;13.666;2023-05-07T09:52:33;68157.63;;;8.76;100.00
36354;BME280;22383;51.114;13.666;2023-05-07T09:55:11;68180.66;;;8.94;100.00
36354;BME280;22383;51.114;13.666;2023-05-07T09:58:04;68173.47;;;8.90;100.00
36354;BME280;22383;51.114;13.666;2023-05-07T10:00:34;68161.59;;;8.79;100.00
36354;BME280;22383;51.114;13.666;2023-05-07T10:03:10;68181.59;;;8.93;100.00
36354;BME280;22383;51.114;13.666;2023-05-07T10:06:01;68164.78;;;8.80;100.00
36354;BME280;22383;51.114;13.666;2023-05-07T10:08:30;68163.09;;;8.78;100.00
36354;BME280;22383;51.114;13.666;2023-05-07T10:11:01;68142.91;;;8.62;100.00
36354;BME280;22383;51.114;13.666;2023-05-07T10:13:32;68140.63;;;8.60;100.00
36354;BME280;22383;51.114;13.666;2023-05-07T10:16:05;68136.88;;;8.59;100.00
36354;BME280;22383;51.114;13.666;2023-05-07T10:18:43;68157.63;;;8.76;100.00
36354;BME280;22383;51.114;13.666;2023-05-07T10:21:18;68181.41;;;8.97;100.00
36354;BME280;22383;51.114;13.666;2023-05-07T10:23:53;68192.16;;;9.07;100.00
36354;BME280;22383;51.114;13.666;2023-05-07T10:26:33;68192.34;;;9.09;100.00
36354;BME280;22383;51.114;13.666;2023-05-07T10:29:15;68185.19;;;9.05;100.00
36354;BME280;22383;51.114;13.666;2023-05-07T10:34:39;68205.38;;;9.21;100.00
36354;BME280;22383;51.114;13.666;2023-05-07T10:37:09;68203.28;;;9.15;100.00
36354;BME280;22383;51.114;13.666;2023-05-07T10:39:37;68198.94;;;9.13;100.00
36354;BME280;22383;51.114;13.666;2023-05-07T10:42:12;68221.63;;;9.34;100.00
36354;BME280;22383;51.114;13.666;2023-05-07T10:44:44;68289.22;;;9.97;100.00
36354;BME280;22383;51.114;13.666;2023-05-07T10:47:18;68334.19;;;10.33;100.00
36354;BME280;22383;51.114;13.666;2023-05-07T10:52:24;68381.06;;;10.81;100.00
36354;BME280;22383;51.114;13.666;2023-05-07T11:01:56;68357.44;;;10.54;100.00
36354;BME280;22383;51.114;13.666;2023-05-07T11:05:21;68331.56;;;10.33;100.00
36354;BME280;22383;51.114;13.666;2023-05-07T11:08:04;68325.72;;;10.33;100.00
36354;BME280;22383;51.114;13.666;2023-05-07T11:10:53;68346.47;;;10.49;100.00
36354;BME280;22383;51.114;13.666;2023-05-07T11:13:47;68348.75;;;10.51;100.00
36354;BME280;22383;51.114;13.666;2023-05-07T11:16:40;68350.84;;;10.51;100.00
36354;BME280;22383;51.114;13.666;2023-05-07T11:19:53;68373.31;;;10.76;100.00
36354;BME280;22383;51.114;13.666;2023-05-07T11:25:09;68396.38;;;10.94;100.00
36354;BME280;22383;51.114;13.666;2023-05-07T11:27:41;68403.19;;;11.01;100.00
36354;BME280;22383;51.114;13.666;2023-05-07T11:30:17;68403.75;;;11.01;100.00
36354;BME280;22383;51.114;13.666;2023-05-07T11:32:47;68414.34;;;11.08;100.00
36354;BME280;22383;51.114;13.666;2023-05-07T11:35:22;68394.13;;;10.92;100.00
36354;BME280;22383;51.114;13.666;2023-05-07T11:37:59;68387.13;;;10.84;100.00
36354;BME280;22383;51.114;13.666;2023-05-07T11:40:31;68375.00;;;10.77;100.00
36354;BME280;22383;51.114;13.666;2023-05-07T11:42:58;68374.84;;;10.75;100.00
36354;BME280;22383;51.114;13.666;2023-05-07T11:45:25;68378.81;;;10.78;100.00
36354;BME280;22383;51.114;13.666;2023-05-07T11:47:55;68385.41;;;10.82;100.00
36354;BME280;22383;51.114;13.666;2023-05-07T11:50:23;68393.16;;;10.87;100.00
36354;BME280;22383;51.114;13.666;2023-05-07T11:52:53;68404.13;;;10.99;100.00
36354;BME280;22383;51.114;13.666;2023-05-07T11:55:20;68422.28;;;11.15;100.00
36354;BME280;22383;51.114;13.666;2023-05-07T11:57:55;68400.16;;;10.95;100.00
36354;BME280;22383;51.114;13.666;2023-05-07T12:00:22;68400.16;;;10.95;100.00
36354;BME280;22383;51.114;13.666;2023-05-07T12:02:50;68416.03;;;11.10;100.00
36354;BME280;22383;51.114;13.666;2023-05-07T12:05:17;68419.06;;;11.15;100.00
36354;BME280;22383;51.114;13.666;2023-05-07T12:07:56;68418.69;;;11.10;100.00
36354;BME280;22383;51.114;13.666;2023-05-07T12:10:23;68413.00;;;11.12;100.00
36354;BME280;22383;51.114;13.666;2023-05-07T12:12:54;68402.44;;;10.97;100.00
36354;BME280;22383;51.114;13.666;2023-05-07T12:15:22;68371.03;;;10.74;100.00
36354;BME280;22383;51.114;13.666;2023-05-07T12:17:56;68372.56;;;10.73;100.00
36354;BME280;22383;51.114;13.666;2023-05-07T12:20:26;68373.50;;;10.71;100.00
36354;BME280;22383;51.114;13.666;2023-05-07T12:22:55;68370.09;;;10.68;100.00
36354;BME280;22383;51.114;13.666;2023-05-07T12:25:24;68383.72;;;10.81;100.00
36354;BME280;22383;51.114;13.666;2023-05-07T12:27:54;68411.31;;;11.03;100.00
36354;BME280;22383;51.114;13.666;2023-05-07T12:30:23;68420.00;;;11.13;100.00
36354;BME280;22383;51.114;13.666;2023-05-07T12:32:54;68434.75;;;11.27;100.00
36354;BME280;22383;51.114;13.666;2023-05-07T12:35:39;68439.09;;;11.28;100.00
36354;BME280;22383;51.114;13.666;2023-05-07T12:38:15;68431.38;;;11.24;100.00
36354;BME280;22383;51.114;13.666;2023-05-07T12:40:50;68428.72;;;11.24;100.00
36354;BME280;22383;51.114;13.666;2023-05-07T12:43:21;68456.31;;;11.46;100.00
36354;BME280;22383;51.114;13.666;2023-05-07T12:45:50;68493.56;;;11.78;100.00
36354;BME280;22383;51.114;13.666;2023-05-07T12:48:19;68490.53;;;11.80;100.00
36354;BME280;22383;51.114;13.666;2023-05-07T12:50:49;68473.72;;;11.67;100.00
36354;BME280;22383;51.114;13.666;2023-05-07T12:53:21;68469.56;;;11.61;100.00
36354;BME280;22383;51.114;13.666;2023-05-07T12:55:54;68482.22;;;11.67;100.00
36354;BME280;22383;51.114;13.666;2023-05-07T12:58:33;68478.63;;;11.69;100.00
36354;BME280;22383;51.114;13.666;2023-05-07T13:01:08;68486.38;;;11.73;100.00
36354;BME280;22383;51.114;13.666;2023-05-07T13:03:38;68491.69;;;11.81;100.00
36354;BME280;22383;51.114;13.666;2023-05-07T13:06:09;68513.09;;;11.98;100.00
36354;BME280;22383;51.114;13.666;2023-05-07T13:08:41;68535.78;;;12.18;100.00
36354;BME280;22383;51.114;13.666;2023-05-07T13:11:17;68558.28;;;12.43;100.00
36354;BME280;22383;51.114;13.666;2023-05-07T13:13:47;68581.75;;;12.60;100.00
36354;BME280;22383;51.114;13.666;2023-05-07T13:16:21;68588.19;;;12.68;100.00
36354;BME280;22383;51.114;13.666;2023-05-07T13:18:48;68584.78;;;12.65;100.00
36354;BME280;22383;51.114;13.666;2023-05-07T13:21:16;68603.34;;;12.79;100.00
36354;BME280;22383;51.114;13.666;2023-05-07T13:23:44;68630.22;;;13.06;100.00
36354;BME280;22383;51.114;13.666;2023-05-07T13:26:13;68627.38;;;13.03;100.00